createdAt,value
2018-04-22T00:01:43.517Z,14.41
2018-04-22T00:02:43.578Z,14.37
2018-04-22T00:04:36.576Z,14.43
2018-04-22T00:05:36.634Z,14.51
2018-04-22T00:07:29.629Z,14.40
2018-04-22T00:08:29.712Z,14.33
2018-04-22T00:10:23.185Z,14.44
2018-04-22T00:11:23.552Z,14.33
2018-04-22T00:13:16.234Z,14.40
2018-04-22T00:14:16.295Z,14.33
2018-04-22T00:16:09.297Z,14.37
2018-04-22T00:17:09.352Z,14.44
2018-04-22T00:19:02.346Z,14.40
2018-04-22T00:20:02.411Z,14.43
2018-04-22T00:21:55.408Z,14.51
2018-04-22T00:22:55.464Z,14.41
2018-04-22T00:24:48.496Z,14.47
2018-04-22T00:25:48.555Z,14.58
2018-04-22T00:27:41.553Z,14.55
2018-04-22T00:28:41.606Z,14.44
2018-04-22T00:30:34.597Z,14.48
2018-04-22T00:31:34.660Z,14.48
2018-04-22T00:33:27.656Z,14.40
2018-04-22T00:34:27.714Z,14.43
2018-04-22T00:36:20.718Z,14.37
2018-04-22T00:37:20.763Z,14.32
2018-04-22T00:39:13.764Z,14.30
2018-04-22T00:40:13.825Z,14.33
2018-04-22T00:42:06.828Z,14.28
2018-04-22T00:43:06.885Z,14.37
2018-04-22T00:45:00.381Z,14.32
2018-04-22T00:46:00.443Z,14.28
2018-04-22T00:47:53.437Z,14.29
2018-04-22T00:48:53.495Z,14.32
2018-04-22T00:50:46.480Z,14.23
2018-04-22T00:51:46.543Z,14.33
2018-04-22T00:53:39.541Z,14.29
2018-04-22T00:54:39.594Z,14.20
2018-04-22T00:56:32.597Z,14.17
2018-04-22T00:57:32.649Z,13.99
2018-04-22T00:59:26.142Z,13.97
2018-04-22T01:00:26.204Z,14.00
2018-04-22T01:02:19.193Z,13.99
2018-04-22T01:03:19.257Z,13.89
2018-04-22T01:05:12.244Z,13.92
2018-04-22T01:06:12.294Z,13.96
2018-04-22T01:08:05.299Z,13.92
2018-04-22T01:09:05.355Z,13.86
2018-04-22T01:10:58.341Z,13.95
2018-04-22T01:11:58.403Z,13.86
2018-04-22T01:13:51.402Z,13.89
2018-04-22T01:14:51.455Z,13.86
2018-04-22T01:16:44.468Z,13.90
2018-04-22T01:17:44.508Z,13.77
2018-04-22T01:19:37.493Z,13.68
2018-04-22T01:20:37.555Z,13.62
2018-04-22T01:22:30.591Z,13.65
2018-04-22T01:23:30.636Z,13.59
2018-04-22T01:25:23.623Z,13.57
2018-04-22T01:26:23.687Z,13.65
2018-04-22T01:28:16.680Z,13.59
2018-04-22T01:29:16.735Z,13.59
2018-04-22T01:31:09.734Z,13.59
2018-04-22T01:32:09.787Z,13.59
2018-04-22T01:34:02.792Z,13.60
2018-04-22T01:35:02.848Z,13.57
2018-04-22T01:36:55.845Z,13.52
2018-04-22T01:37:55.897Z,13.50
2018-04-22T01:39:48.890Z,13.57
2018-04-22T01:40:48.949Z,13.53
2018-04-22T01:42:41.946Z,13.53
2018-04-22T01:43:41.998Z,13.50
2018-04-22T01:45:34.989Z,13.47
2018-04-22T01:46:35.058Z,13.54
2018-04-22T01:48:28.053Z,13.49
2018-04-22T01:49:28.104Z,13.38
2018-04-22T01:51:21.092Z,13.52
2018-04-22T01:52:21.153Z,13.52
2018-04-22T01:54:14.151Z,13.50
2018-04-22T01:55:14.202Z,13.42
2018-04-22T01:57:07.195Z,13.42
2018-04-22T01:58:07.250Z,13.41
2018-04-22T02:00:00.238Z,13.42
2018-04-22T02:01:00.299Z,13.41
2018-04-22T02:02:53.295Z,13.20
2018-04-22T02:03:53.349Z,13.18
2018-04-22T02:05:46.336Z,13.18
2018-04-22T02:06:46.399Z,13.12
2018-04-22T02:08:39.394Z,13.03
2018-04-22T02:09:39.446Z,12.97
2018-04-22T02:11:32.435Z,13.01
2018-04-22T02:12:32.497Z,12.91
2018-04-22T02:14:25.494Z,12.98
2018-04-22T02:15:25.547Z,12.95
2018-04-22T02:17:18.540Z,12.94
2018-04-22T02:18:18.596Z,12.93
2018-04-22T02:20:11.581Z,12.91
2018-04-22T02:21:11.641Z,12.90
2018-04-22T02:23:04.638Z,12.93
2018-04-22T02:24:04.692Z,12.83
2018-04-22T02:25:57.675Z,12.91
2018-04-22T02:26:57.739Z,12.86
2018-04-22T02:28:50.738Z,12.85
2018-04-22T02:29:50.789Z,12.90
2018-04-22T02:31:43.786Z,12.90
2018-04-22T02:32:43.838Z,12.83
2018-04-22T02:34:36.851Z,12.85
2018-04-22T02:35:36.886Z,12.93
2018-04-22T02:37:29.883Z,12.85
2018-04-22T02:38:29.934Z,12.85
2018-04-22T02:40:22.933Z,12.82
2018-04-22T02:41:22.986Z,12.87
2018-04-22T02:43:15.980Z,12.93
2018-04-22T02:44:16.032Z,12.85
2018-04-22T02:46:09.026Z,12.83
2018-04-22T02:47:09.083Z,12.87
2018-04-22T02:49:02.076Z,12.95
2018-04-22T02:50:02.131Z,12.86
2018-04-22T02:51:55.116Z,12.93
2018-04-22T02:52:55.180Z,12.90
2018-04-22T02:54:48.178Z,12.95
2018-04-22T02:55:48.235Z,12.83
2018-04-22T02:57:41.236Z,12.70
2018-04-22T02:58:41.289Z,12.67
2018-04-22T03:00:34.287Z,12.75
2018-04-22T03:01:34.341Z,12.76
2018-04-22T03:03:27.341Z,12.83
2018-04-22T03:04:27.388Z,12.75
2018-04-22T03:06:20.377Z,12.65
2018-04-22T03:07:20.436Z,12.64
2018-04-22T03:09:13.433Z,12.65
2018-04-22T03:10:13.498Z,12.70
2018-04-22T03:12:06.479Z,12.62
2018-04-22T03:13:06.545Z,12.64
2018-04-22T03:14:59.551Z,12.72
2018-04-22T03:15:59.608Z,12.67
2018-04-22T03:17:52.603Z,12.76
2018-04-22T03:18:52.660Z,12.65
2018-04-22T03:20:45.646Z,12.67
2018-04-22T03:21:45.708Z,12.61
2018-04-22T03:23:39.206Z,12.68
2018-04-22T03:24:39.268Z,12.64
2018-04-22T03:26:32.250Z,12.67
2018-04-22T03:27:32.311Z,12.55
2018-04-22T03:29:25.306Z,12.60
2018-04-22T03:30:25.357Z,12.60
2018-04-22T03:32:18.342Z,12.50
2018-04-22T03:33:18.404Z,12.50
2018-04-22T03:35:11.400Z,12.47
2018-04-22T03:36:11.451Z,12.49
2018-04-22T03:38:04.448Z,12.45
2018-04-22T03:39:04.501Z,12.45
2018-04-22T03:40:57.489Z,12.47
2018-04-22T03:41:57.558Z,12.49
2018-04-22T03:43:50.545Z,12.46
2018-04-22T03:44:50.597Z,12.46
2018-04-22T03:46:43.584Z,12.40
2018-04-22T03:47:43.645Z,12.46
2018-04-22T03:49:36.641Z,12.36
2018-04-22T03:50:36.693Z,12.57
2018-04-22T03:52:29.682Z,12.49
2018-04-22T03:53:29.743Z,12.57
2018-04-22T03:55:22.741Z,12.49
2018-04-22T03:56:22.791Z,12.46
2018-04-22T03:58:15.779Z,12.50
2018-04-22T03:59:15.837Z,12.50
2018-04-22T04:01:08.824Z,12.55
2018-04-22T04:02:08.885Z,12.64
2018-04-22T04:04:01.880Z,12.72
2018-04-22T04:05:01.935Z,12.62
2018-04-22T04:06:54.917Z,12.64
2018-04-22T04:07:54.979Z,12.62
2018-04-22T04:09:47.979Z,12.72
2018-04-22T04:10:48.036Z,12.75
2018-04-22T04:12:41.031Z,12.73
2018-04-22T04:13:41.095Z,12.65
2018-04-22T04:15:34.086Z,12.68
2018-04-22T04:16:34.143Z,12.67
2018-04-22T04:18:27.128Z,12.61
2018-04-22T04:19:27.185Z,12.79
2018-04-22T04:21:20.173Z,12.67
2018-04-22T04:22:20.249Z,12.73
2018-04-22T04:24:13.735Z,12.72
2018-04-22T04:25:13.788Z,12.72
2018-04-22T04:27:06.784Z,12.87
2018-04-22T04:28:06.845Z,12.75
2018-04-22T04:29:59.839Z,12.80
2018-04-22T04:30:59.890Z,12.85
2018-04-22T04:32:52.879Z,12.93
2018-04-22T04:33:52.939Z,12.87
2018-04-22T04:35:45.935Z,12.79
2018-04-22T04:36:45.986Z,12.75
2018-04-22T04:38:39.010Z,12.73
2018-04-22T04:39:39.034Z,12.72
2018-04-22T04:41:32.025Z,12.78
2018-04-22T04:42:32.090Z,12.65
2018-04-22T04:44:25.082Z,12.80
2018-04-22T04:45:25.137Z,12.80
2018-04-22T04:47:18.122Z,12.90
2018-04-22T04:48:18.187Z,12.90
2018-04-22T04:50:11.196Z,12.82
2018-04-22T04:51:11.251Z,12.90
2018-04-22T04:53:04.238Z,12.83
2018-04-22T04:54:04.299Z,12.80
2018-04-22T04:55:57.294Z,12.73
2018-04-22T04:56:57.347Z,12.73
2018-04-22T04:58:50.337Z,12.75
2018-04-22T04:59:50.392Z,12.76
2018-04-22T05:01:43.379Z,12.79
2018-04-22T05:02:43.441Z,12.90
2018-04-22T05:04:36.441Z,12.91
2018-04-22T05:05:36.511Z,13.03
2018-04-22T05:07:29.482Z,13.00
2018-04-22T05:08:29.545Z,13.13
2018-04-22T05:10:22.541Z,13.11
2018-04-22T05:11:22.840Z,13.12
2018-04-22T05:13:15.579Z,13.22
2018-04-22T05:14:15.640Z,13.16
2018-04-22T05:16:08.635Z,13.23
2018-04-22T05:17:08.687Z,13.23
2018-04-22T05:19:01.678Z,13.28
2018-04-22T05:20:01.736Z,13.23
2018-04-22T05:21:54.756Z,13.16
2018-04-22T05:22:54.785Z,13.08
2018-04-22T05:24:47.806Z,13.05
2018-04-22T05:25:47.837Z,13.08
2018-04-22T05:27:40.817Z,13.09
2018-04-22T05:28:41.176Z,13.22
2018-04-22T05:30:33.976Z,13.20
2018-04-22T05:31:33.945Z,13.33
2018-04-22T05:33:26.953Z,13.39
2018-04-22T05:34:26.994Z,13.46
2018-04-22T05:36:19.977Z,13.54
2018-04-22T05:37:20.034Z,13.54
2018-04-22T05:39:13.128Z,13.71
2018-04-22T05:40:13.081Z,13.71
2018-04-22T05:42:06.077Z,13.75
2018-04-22T05:43:06.136Z,13.77
2018-04-22T05:44:59.133Z,13.72
2018-04-22T05:45:59.186Z,13.78
2018-04-22T05:47:52.172Z,13.97
2018-04-22T05:48:52.234Z,13.96
2018-04-22T05:50:45.246Z,14.10
2018-04-22T05:51:45.822Z,14.20
2018-04-22T05:53:38.291Z,14.33
2018-04-22T05:54:38.351Z,14.40
2018-04-22T05:56:31.351Z,14.37
2018-04-22T05:57:31.406Z,14.51
2018-04-22T05:59:24.595Z,14.69
2018-04-22T06:00:24.456Z,14.88
2018-04-22T06:02:17.482Z,14.99
2018-04-22T06:03:17.509Z,15.07
2018-04-22T06:05:10.502Z,15.21
2018-04-22T06:06:10.557Z,15.22
2018-04-22T06:08:03.548Z,15.33
2018-04-22T06:09:03.609Z,15.51
2018-04-22T06:10:56.607Z,15.39
2018-04-22T06:11:56.674Z,15.40
2018-04-22T06:13:49.649Z,15.31
2018-04-22T06:14:49.711Z,15.36
2018-04-22T06:16:42.711Z,15.94
2018-04-22T06:17:42.764Z,16.16
2018-04-22T06:19:35.765Z,16.68
2018-04-22T06:20:35.814Z,16.94
2018-04-22T06:22:29.310Z,17.78
2018-04-22T06:23:29.375Z,18.05
2018-04-22T06:25:22.379Z,18.78
2018-04-22T06:26:22.436Z,19.31
2018-04-22T06:28:15.453Z,18.78
2018-04-22T06:29:15.488Z,19.18
2018-04-22T06:31:08.988Z,19.22
2018-04-22T06:32:09.048Z,19.34
2018-04-22T06:34:02.046Z,19.49
2018-04-22T06:35:02.103Z,19.51
2018-04-22T06:36:55.107Z,18.53
2018-04-22T06:37:55.167Z,18.29
2018-04-22T06:39:48.166Z,17.70
2018-04-22T06:40:48.221Z,17.49
2018-04-22T06:42:41.225Z,17.30
2018-04-22T06:43:41.291Z,17.29
2018-04-22T06:45:34.291Z,17.78
2018-04-22T06:46:34.346Z,18.16
2018-04-22T06:48:27.845Z,18.63
2018-04-22T06:49:27.908Z,19.82
2018-04-22T06:51:20.908Z,20.77
2018-04-22T06:52:20.964Z,20.84
2018-04-22T06:54:13.965Z,21.07
2018-04-22T06:55:14.023Z,21.48
2018-04-22T06:57:07.027Z,21.89
2018-04-22T06:58:07.089Z,21.76
2018-04-22T07:00:00.082Z,22.65
2018-04-22T07:01:00.143Z,23.00
2018-04-22T07:02:53.651Z,23.34
2018-04-22T07:03:53.713Z,22.96
2018-04-22T07:05:46.718Z,22.94
2018-04-22T07:06:46.778Z,22.73
2018-04-22T07:08:39.781Z,22.04
2018-04-22T07:09:39.852Z,21.54
2018-04-22T07:11:32.866Z,21.05
2018-04-22T07:12:32.927Z,21.09
2018-04-22T07:14:25.934Z,21.85
2018-04-22T07:15:25.997Z,21.92
2018-04-22T07:17:19.002Z,22.38
2018-04-22T07:18:19.064Z,23.31
2018-04-22T07:20:12.073Z,23.62
2018-04-22T07:21:12.133Z,24.01
2018-04-22T07:23:05.654Z,24.57
2018-04-22T07:24:05.769Z,24.13
2018-04-22T07:25:58.731Z,24.55
2018-04-22T07:26:58.796Z,24.93
2018-04-22T07:28:51.796Z,24.13
2018-04-22T07:29:51.867Z,23.81
2018-04-22T07:31:44.917Z,24.55
2018-04-22T07:32:44.953Z,25.26
2018-04-22T07:34:37.961Z,25.08
2018-04-22T07:35:38.027Z,24.81
2018-04-22T07:37:31.040Z,25.08
2018-04-22T07:38:31.105Z,25.07
2018-04-22T07:40:24.114Z,24.74
2018-04-22T07:41:24.179Z,24.95
2018-04-22T07:43:17.183Z,25.72
2018-04-22T07:44:17.256Z,25.91
2018-04-22T07:46:10.266Z,26.25
2018-04-22T07:47:10.333Z,26.48
2018-04-22T07:49:03.343Z,26.78
2018-04-22T07:50:03.413Z,26.19
2018-04-22T07:51:56.431Z,26.85
2018-04-22T07:52:56.496Z,27.08
2018-04-22T07:54:49.512Z,26.90
2018-04-22T07:55:49.587Z,26.88
2018-04-22T07:57:42.600Z,26.62
2018-04-22T07:58:42.663Z,26.09
2018-04-22T08:00:35.688Z,26.23
2018-04-22T08:01:35.746Z,26.74
2018-04-22T08:03:28.756Z,28.11
2018-04-22T08:04:28.876Z,28.17
2018-04-22T08:06:21.858Z,28.22
2018-04-22T08:07:21.925Z,28.81
2018-04-22T08:09:14.940Z,27.98
2018-04-22T08:10:16.731Z,28.26
2018-04-22T08:12:08.025Z,27.85
2018-04-22T08:13:08.092Z,28.17
2018-04-22T08:15:01.100Z,28.37
2018-04-22T08:16:01.180Z,29.02
2018-04-22T08:17:54.190Z,28.88
2018-04-22T08:18:54.401Z,28.45
2018-04-22T08:20:47.280Z,28.98
2018-04-22T08:21:47.345Z,29.59
2018-04-22T08:23:41.861Z,29.91
2018-04-22T08:24:41.930Z,30.39
2018-04-22T08:26:34.956Z,30.87
2018-04-22T08:27:35.020Z,29.98
2018-04-22T08:29:28.033Z,28.82
2018-04-22T08:30:28.108Z,29.14
2018-04-22T08:32:21.129Z,29.50
2018-04-22T08:33:21.250Z,29.59
2018-04-22T08:35:14.217Z,28.27
2018-04-22T08:36:14.286Z,28.84
2018-04-22T08:38:07.305Z,29.72
2018-04-22T08:39:07.377Z,29.90
2018-04-22T08:41:00.404Z,30.55
2018-04-22T08:42:00.468Z,30.68
2018-04-22T08:43:53.485Z,30.57
2018-04-22T08:44:53.561Z,30.12
2018-04-22T08:46:46.583Z,30.27
2018-04-22T08:47:46.652Z,30.32
2018-04-22T08:49:39.666Z,29.84
2018-04-22T08:50:39.767Z,29.88
2018-04-22T08:52:32.763Z,30.57
2018-04-22T08:53:32.834Z,31.03
2018-04-22T08:55:25.849Z,31.93
2018-04-22T08:56:25.926Z,31.70
2018-04-22T08:58:18.953Z,31.34
2018-04-22T08:59:19.016Z,32.00
2018-04-22T09:01:12.044Z,32.16
2018-04-22T09:02:12.113Z,32.38
2018-04-22T09:04:05.140Z,31.33
2018-04-22T09:05:05.206Z,30.85
2018-04-22T09:06:58.231Z,30.21
2018-04-22T09:07:58.301Z,29.81
2018-04-22T09:09:51.326Z,30.59
2018-04-22T09:10:51.456Z,30.75
2018-04-22T09:12:44.435Z,30.97
2018-04-22T09:13:44.500Z,31.31
2018-04-22T09:15:37.540Z,29.73
2018-04-22T09:16:37.592Z,29.41
2018-04-22T09:18:30.624Z,28.70
2018-04-22T09:19:30.695Z,28.23
2018-04-22T09:21:23.723Z,27.26
2018-04-22T09:22:23.795Z,27.21
2018-04-22T09:24:16.810Z,27.00
2018-04-22T09:25:16.885Z,27.03
2018-04-22T09:27:09.909Z,26.93
2018-04-22T09:28:09.977Z,26.89
2018-04-22T09:30:02.988Z,26.55
2018-04-22T09:31:03.058Z,26.41
2018-04-22T09:32:56.072Z,26.06
2018-04-22T09:33:56.137Z,26.22
2018-04-22T09:35:49.148Z,25.90
2018-04-22T09:36:49.220Z,26.00
2018-04-22T09:38:42.229Z,25.90
2018-04-22T09:39:42.305Z,25.81
2018-04-22T09:41:35.313Z,26.05
2018-04-22T09:42:35.370Z,26.00
2018-04-22T09:44:28.382Z,26.06
2018-04-22T09:45:28.444Z,25.99
2018-04-22T09:47:21.455Z,25.98
2018-04-22T09:48:21.519Z,26.00
2018-04-22T09:50:14.525Z,26.18
2018-04-22T09:51:14.595Z,26.10
2018-04-22T09:53:07.606Z,25.90
2018-04-22T09:54:07.671Z,25.91
2018-04-22T09:56:00.677Z,25.83
2018-04-22T09:57:00.750Z,25.95
2018-04-22T09:58:53.759Z,25.95
2018-04-22T09:59:53.821Z,25.85
2018-04-22T10:01:46.828Z,26.03
2018-04-22T10:02:46.891Z,26.02
2018-04-22T10:04:39.894Z,26.06
2018-04-22T10:05:39.962Z,25.96
2018-04-22T10:07:32.973Z,26.06
2018-04-22T10:08:33.036Z,25.85
2018-04-22T10:10:26.036Z,25.70
2018-04-22T10:11:26.105Z,25.53
2018-04-22T10:13:19.116Z,25.60
2018-04-22T10:14:19.180Z,25.70
2018-04-22T10:16:12.183Z,25.75
2018-04-22T10:17:12.251Z,25.85
2018-04-22T10:19:05.260Z,25.99
2018-04-22T10:20:05.325Z,25.96
2018-04-22T10:21:58.358Z,25.95
2018-04-22T10:22:58.391Z,25.88
2018-04-22T10:24:51.397Z,25.98
2018-04-22T10:25:51.461Z,25.95
2018-04-22T10:27:44.478Z,26.05
2018-04-22T10:28:44.532Z,25.96
2018-04-22T10:30:37.534Z,25.95
2018-04-22T10:31:37.603Z,26.06
2018-04-22T10:33:30.614Z,26.23
2018-04-22T10:34:30.675Z,26.31
2018-04-22T10:36:23.683Z,26.23
2018-04-22T10:37:23.749Z,26.25
2018-04-22T10:39:16.759Z,26.26
2018-04-22T10:40:16.823Z,26.22
2018-04-22T10:42:09.831Z,26.26
2018-04-22T10:43:09.893Z,26.22
2018-04-22T10:45:02.907Z,26.25
2018-04-22T10:46:02.971Z,26.38
2018-04-22T10:47:55.981Z,26.51
2018-04-22T10:48:56.042Z,26.55
2018-04-22T10:50:49.058Z,26.52
2018-04-22T10:51:49.114Z,26.45
2018-04-22T10:53:42.119Z,26.56
2018-04-22T10:54:42.182Z,26.65
2018-04-22T10:56:35.191Z,26.62
2018-04-22T10:57:35.260Z,26.73
2018-04-22T10:59:28.269Z,26.48
2018-04-22T11:00:28.330Z,26.63
2018-04-22T11:02:21.842Z,26.62
2018-04-22T11:03:21.907Z,26.63
2018-04-22T11:05:14.911Z,26.75
2018-04-22T11:06:14.978Z,26.77
2018-04-22T11:08:07.986Z,26.96
2018-04-22T11:09:08.050Z,26.88
2018-04-22T11:11:01.043Z,26.97
2018-04-22T11:12:01.125Z,26.93
2018-04-22T11:13:54.131Z,26.96
2018-04-22T11:14:54.189Z,26.99
2018-04-22T11:16:47.189Z,26.88
2018-04-22T11:17:47.257Z,26.90
2018-04-22T11:19:40.265Z,27.00
2018-04-22T11:20:40.329Z,27.08
2018-04-22T11:22:33.387Z,27.32
2018-04-22T11:23:33.401Z,27.14
2018-04-22T11:25:26.405Z,27.51
2018-04-22T11:26:26.470Z,27.58
2018-04-22T11:28:19.482Z,27.67
2018-04-22T11:29:19.543Z,27.74
2018-04-22T11:31:12.549Z,27.85
2018-04-22T11:32:12.620Z,27.95
2018-04-22T11:34:05.632Z,28.11
2018-04-22T11:35:05.701Z,28.26
2018-04-22T11:36:58.704Z,28.20
2018-04-22T11:37:58.775Z,28.12
2018-04-22T11:39:51.783Z,28.10
2018-04-22T11:40:51.847Z,28.20
2018-04-22T11:42:44.866Z,28.02
2018-04-22T11:43:44.924Z,27.98
2018-04-22T11:45:37.924Z,27.90
2018-04-22T11:46:37.997Z,27.95
2018-04-22T11:48:31.009Z,27.68
2018-04-22T11:49:31.069Z,27.63
2018-04-22T11:51:24.078Z,27.49
2018-04-22T11:52:24.147Z,27.33
2018-04-22T11:54:17.163Z,27.14
2018-04-22T11:55:17.225Z,27.33
2018-04-22T11:57:10.232Z,27.45
2018-04-22T11:58:10.299Z,27.49
2018-04-22T12:00:03.314Z,27.68
2018-04-22T12:01:03.372Z,27.75
2018-04-22T12:02:56.382Z,27.90
2018-04-22T12:03:56.443Z,27.92
2018-04-22T12:05:49.457Z,27.96
2018-04-22T12:06:49.515Z,28.00
2018-04-22T12:08:42.527Z,27.89
2018-04-22T12:09:42.590Z,27.95
2018-04-22T12:11:35.598Z,28.11
2018-04-22T12:12:35.668Z,28.04
2018-04-22T12:14:28.677Z,27.82
2018-04-22T12:15:28.741Z,27.74
2018-04-22T12:17:21.742Z,27.73
2018-04-22T12:18:21.811Z,27.63
2018-04-22T12:20:14.820Z,27.40
2018-04-22T12:21:14.885Z,27.42
2018-04-22T12:23:08.401Z,27.47
2018-04-22T12:24:08.465Z,27.55
2018-04-22T12:26:01.466Z,27.64
2018-04-22T12:27:01.536Z,27.83
2018-04-22T12:28:54.545Z,27.96
2018-04-22T12:29:54.610Z,28.00
2018-04-22T12:31:47.617Z,27.89
2018-04-22T12:32:47.689Z,27.89
2018-04-22T12:34:40.696Z,27.89
2018-04-22T12:35:40.757Z,27.87
2018-04-22T12:37:33.757Z,27.74
2018-04-22T12:38:33.827Z,27.86
2018-04-22T12:40:26.835Z,27.89
2018-04-22T12:41:26.901Z,27.85
2018-04-22T12:43:19.914Z,27.82
2018-04-22T12:44:19.974Z,27.86
2018-04-22T12:46:12.982Z,27.90
2018-04-22T12:47:13.057Z,27.82
2018-04-22T12:49:06.063Z,27.67
2018-04-22T12:50:06.125Z,27.49
2018-04-22T12:51:59.124Z,27.67
2018-04-22T12:52:59.195Z,27.77
2018-04-22T12:54:52.206Z,27.86
2018-04-22T12:55:52.268Z,27.86
2018-04-22T12:57:45.274Z,28.01
2018-04-22T12:58:45.338Z,27.90
2018-04-22T13:00:38.350Z,27.98
2018-04-22T13:01:38.416Z,28.01
2018-04-22T13:03:31.425Z,28.02
2018-04-22T13:04:31.488Z,28.08
2018-04-22T13:06:24.495Z,28.08
2018-04-22T13:07:24.564Z,28.12
2018-04-22T13:09:17.573Z,28.08
2018-04-22T13:10:17.633Z,27.89
2018-04-22T13:12:10.634Z,27.82
2018-04-22T13:13:10.710Z,27.71
2018-04-22T13:15:03.712Z,27.71
2018-04-22T13:16:03.778Z,27.71
2018-04-22T13:17:56.784Z,27.96
2018-04-22T13:18:56.860Z,28.08
2018-04-22T13:20:49.869Z,28.04
2018-04-22T13:21:49.932Z,28.04
2018-04-22T13:23:43.455Z,27.92
2018-04-22T13:24:43.515Z,27.96
2018-04-22T13:26:36.522Z,27.78
2018-04-22T13:27:36.589Z,27.64
2018-04-22T13:29:29.601Z,27.35
2018-04-22T13:30:29.664Z,27.35
2018-04-22T13:32:22.668Z,27.17
2018-04-22T13:33:22.735Z,27.11
2018-04-22T13:35:15.742Z,27.05
2018-04-22T13:36:15.831Z,27.17
2018-04-22T13:38:08.813Z,27.11
2018-04-22T13:39:08.877Z,27.11
2018-04-22T13:41:01.893Z,27.08
2018-04-22T13:42:01.952Z,27.07
2018-04-22T13:43:54.962Z,27.10
2018-04-22T13:44:55.022Z,27.03
2018-04-22T13:46:48.043Z,27.11
2018-04-22T13:47:48.296Z,27.03
2018-04-22T13:49:41.106Z,26.95
2018-04-22T13:50:41.169Z,26.84
2018-04-22T13:52:34.170Z,26.89
2018-04-22T13:53:34.241Z,26.75
2018-04-22T13:55:27.246Z,26.71
2018-04-22T13:56:27.309Z,26.56
2018-04-22T13:58:20.822Z,26.43
2018-04-22T13:59:20.891Z,26.43
2018-04-22T14:01:13.902Z,26.25
2018-04-22T14:02:13.959Z,26.06
2018-04-22T14:04:07.028Z,25.75
2018-04-22T14:05:07.032Z,25.65
2018-04-22T14:07:00.036Z,25.66
2018-04-22T14:08:00.176Z,25.72
2018-04-22T14:09:53.173Z,25.83
2018-04-22T14:10:53.236Z,25.84
2018-04-22T14:12:46.246Z,26.06
2018-04-22T14:13:46.385Z,26.13
2018-04-22T14:15:39.318Z,26.25
2018-04-22T14:16:39.387Z,26.23
2018-04-22T14:18:32.379Z,26.44
2018-04-22T14:19:32.453Z,26.58
2018-04-22T14:21:25.462Z,26.89
2018-04-22T14:22:25.525Z,26.92
2018-04-22T14:24:18.536Z,26.88
2018-04-22T14:25:18.626Z,26.88
2018-04-22T14:27:11.602Z,26.96
2018-04-22T14:28:11.671Z,26.89
2018-04-22T14:30:04.680Z,26.93
2018-04-22T14:31:04.748Z,26.85
2018-04-22T14:32:57.756Z,26.97
2018-04-22T14:33:57.820Z,26.99
2018-04-22T14:35:50.826Z,27.00
2018-04-22T14:36:50.893Z,27.07
2018-04-22T14:38:43.901Z,27.14
2018-04-22T14:39:43.968Z,27.21
2018-04-22T14:41:36.972Z,27.30
2018-04-22T14:42:37.035Z,27.33
2018-04-22T14:44:30.044Z,27.25
2018-04-22T14:45:30.112Z,27.25
2018-04-22T14:47:23.113Z,27.30
2018-04-22T14:48:23.211Z,27.29
2018-04-22T14:50:16.187Z,27.17
2018-04-22T14:51:16.251Z,27.18
2018-04-22T14:53:09.272Z,27.17
2018-04-22T14:54:09.330Z,27.15
2018-04-22T14:56:02.426Z,27.12
2018-04-22T14:57:02.404Z,27.08
2018-04-22T14:59:07.084Z,27.07
2018-04-22T15:00:07.148Z,27.17
2018-04-22T15:02:00.166Z,27.11
2018-04-22T15:03:00.236Z,27.08
2018-04-22T15:04:53.240Z,27.14
2018-04-22T15:05:53.304Z,27.17
2018-04-22T15:07:46.310Z,27.18
2018-04-22T15:08:46.380Z,27.11
2018-04-22T15:10:39.384Z,27.11
2018-04-22T15:11:39.453Z,27.05
2018-04-22T15:13:32.459Z,26.99
2018-04-22T15:14:32.523Z,26.95
2018-04-22T15:16:25.531Z,27.11
2018-04-22T15:17:25.592Z,27.12
2018-04-22T15:19:18.600Z,27.22
2018-04-22T15:20:18.667Z,27.21
2018-04-22T15:22:11.673Z,27.17
2018-04-22T15:23:11.740Z,27.07
2018-04-22T15:25:04.811Z,26.88
2018-04-22T15:26:04.813Z,26.66
2018-04-22T15:27:57.813Z,26.41
2018-04-22T15:28:57.883Z,26.23
2018-04-22T15:30:50.890Z,26.03
2018-04-22T15:31:50.956Z,25.98
2018-04-22T15:33:43.960Z,25.65
2018-04-22T15:34:44.031Z,25.73
2018-04-22T15:36:37.033Z,25.60
2018-04-22T15:37:37.097Z,25.70
2018-04-22T15:39:30.104Z,25.63
2018-04-22T15:40:30.167Z,25.46
2018-04-22T15:42:23.174Z,25.44
2018-04-22T15:43:23.238Z,25.44
2018-04-22T15:45:16.253Z,25.40
2018-04-22T15:46:16.313Z,25.36
2018-04-22T15:48:09.315Z,25.46
2018-04-22T15:49:09.386Z,25.40
2018-04-22T15:51:02.417Z,25.36
2018-04-22T15:52:02.462Z,25.31
2018-04-22T15:53:55.463Z,25.18
2018-04-22T15:54:55.524Z,25.21
2018-04-22T15:56:48.530Z,25.26
2018-04-22T15:57:48.587Z,25.38
2018-04-22T15:59:42.106Z,25.11
2018-04-22T16:00:42.171Z,24.96
2018-04-22T16:02:35.188Z,24.98
2018-04-22T16:03:35.245Z,24.98
2018-04-22T16:05:28.256Z,24.93
2018-04-22T16:06:28.315Z,24.77
2018-04-22T16:08:21.365Z,24.73
2018-04-22T16:09:22.333Z,24.61
2018-04-22T16:11:14.395Z,24.50
2018-04-22T16:12:14.458Z,24.50
2018-04-22T16:14:07.539Z,24.55
2018-04-22T16:15:07.533Z,24.55
2018-04-22T16:17:00.538Z,24.51
2018-04-22T16:18:00.600Z,24.45
2018-04-22T16:19:53.604Z,24.35
2018-04-22T16:20:53.668Z,24.23
2018-04-22T16:22:46.683Z,24.33
2018-04-22T16:23:46.744Z,24.33
2018-04-22T16:25:39.767Z,24.13
2018-04-22T16:26:39.836Z,24.14
2018-04-22T16:28:32.832Z,24.03
2018-04-22T16:29:32.900Z,23.98
2018-04-22T16:31:25.916Z,23.92
2018-04-22T16:32:25.980Z,23.84
2018-04-22T16:34:18.985Z,23.69
2018-04-22T16:35:19.125Z,23.66
2018-04-22T16:37:12.065Z,23.68
2018-04-22T16:38:12.121Z,23.66
2018-04-22T16:40:05.126Z,23.61
2018-04-22T16:41:05.192Z,23.68
2018-04-22T16:42:58.205Z,23.59
2018-04-22T16:43:58.261Z,23.55
2018-04-22T16:45:51.278Z,23.61
2018-04-22T16:46:51.337Z,23.59
2018-04-22T16:48:44.335Z,23.54
2018-04-22T16:49:44.396Z,23.54
2018-04-22T16:51:37.411Z,23.48
2018-04-22T16:52:37.471Z,23.40
2018-04-22T16:54:30.477Z,23.31
2018-04-22T16:55:30.553Z,23.34
2018-04-22T16:57:23.544Z,23.13
2018-04-22T16:58:23.604Z,23.13
2018-04-22T17:00:16.608Z,23.20
2018-04-22T17:01:16.725Z,23.03
2018-04-22T17:03:09.686Z,23.00
2018-04-22T17:04:09.739Z,22.98
2018-04-22T17:06:02.754Z,22.80
2018-04-22T17:07:02.807Z,22.91
2018-04-22T17:08:55.821Z,22.76
2018-04-22T17:09:55.885Z,22.75
2018-04-22T17:11:48.896Z,22.68
2018-04-22T17:12:48.958Z,22.76
2018-04-22T17:14:41.956Z,22.76
2018-04-22T17:15:42.023Z,22.66
2018-04-22T17:17:35.049Z,22.69
2018-04-22T17:18:35.386Z,22.76
2018-04-22T17:20:28.108Z,22.66
2018-04-22T17:21:28.175Z,22.63
2018-04-22T17:23:21.193Z,22.55
2018-04-22T17:24:21.237Z,22.59
2018-04-22T17:26:14.256Z,22.60
2018-04-22T17:27:14.311Z,22.55
2018-04-22T17:29:07.330Z,22.44
2018-04-22T17:30:07.390Z,22.39
2018-04-22T17:32:00.400Z,22.32
2018-04-22T17:33:00.776Z,22.36
2018-04-22T17:34:53.456Z,22.23
2018-04-22T17:35:53.520Z,22.22
2018-04-22T17:37:46.524Z,22.15
2018-04-22T17:38:46.584Z,22.14
2018-04-22T17:40:39.589Z,22.08
2018-04-22T17:41:39.650Z,22.06
2018-04-22T17:43:32.656Z,22.07
2018-04-22T17:44:32.899Z,21.96
2018-04-22T17:46:25.717Z,22.00
2018-04-22T17:47:25.778Z,21.93
2018-04-22T17:49:18.780Z,21.98
2018-04-22T17:50:18.849Z,21.91
2018-04-22T17:52:11.848Z,21.89
2018-04-22T17:53:11.911Z,21.91
2018-04-22T17:55:04.908Z,21.91
2018-04-22T17:56:04.974Z,21.75
2018-04-22T17:57:57.979Z,21.73
2018-04-22T17:58:58.038Z,21.73
2018-04-22T18:00:51.042Z,21.69
2018-04-22T18:01:51.117Z,21.66
2018-04-22T18:03:44.111Z,21.72
2018-04-22T18:04:44.172Z,21.62
2018-04-22T18:06:37.182Z,21.58
2018-04-22T18:07:37.266Z,21.54
2018-04-22T18:09:30.250Z,21.46
2018-04-22T18:10:30.311Z,21.39
2018-04-22T18:12:23.320Z,21.33
2018-04-22T18:13:23.385Z,21.24
2018-04-22T18:15:16.380Z,21.36
2018-04-22T18:16:16.449Z,21.20
2018-04-22T18:18:09.446Z,21.15
2018-04-22T18:19:09.506Z,21.30
2018-04-22T18:21:02.509Z,21.33
2018-04-22T18:22:02.568Z,21.37
2018-04-22T18:23:55.576Z,21.40
2018-04-22T18:24:55.636Z,21.43
2018-04-22T18:26:48.637Z,21.39
2018-04-22T18:27:48.720Z,21.36
2018-04-22T18:29:41.701Z,21.22
2018-04-22T18:30:41.779Z,21.15
2018-04-22T18:32:34.778Z,21.29
2018-04-22T18:33:34.841Z,21.37
2018-04-22T18:35:27.835Z,21.45